Steeles Tavern, Virginia
Current Conditions -  °F | °C
As of 3:35 AM on Friday 24 Oct 2014 (Local Time) from KW13 Reporting Station
Clear Clear  
Wind Chill: 41°   Ceiling: Unl
Heat Index: 45°   Visibility: 10mi
Dew Point: 38°   Wind: 6mph
Humidity: 79%   Direction: 270°W
Pressure: 29.99"   Gusts: NA
Location:  37.93°N, 79.2°W
Report Text: KW13 240735Z AUTO 27005KT 10SM CLR 07/04 A2999 RMK AO1 T00700035
Loading
Personal Weather Stations






























Interactive Weather Map
Tropical Storm Tracking
New forecast layout! Learn more

10-Day Weather Forecast

Advertisements
Track Severe Weather on mobile